Погода Мровляна 2 недели

Подкарпатское воеводство, Польша

15 - 27 июля
  • 15июля
    Сегодня
    +19°
    +29°
    Небольшая облачность
    ВремяПогодаТемператураВлажностьДавлениеВетер, м/сВероятность осадков
    02:00Ясно и безоблачно+19°C98 %743 мм1.8 м/с2 %
    05:00Небольшая облачность+18°C99 %743 мм1.6 м/с2 %
    08:00Облачно с прояснениями+22°C86 %744 мм2.4 м/с2 %
    11:00Пасмурно, сплошная облачность+25°C70 %744 мм2.5 м/с8 %
    14:00Небольшая облачность+28°C55 %744 мм2.6 м/с6 %
    17:00Небольшая облачность+28°C50 %743 мм2.8 м/с11 %
    20:00Практически безоблачно+26°C76 %743 мм2.1 м/с5 %
    23:00Ясно и безоблачно+22°C89 %743 мм1.9 м/с1 %
  • 16июля
    Вторник
    +20°
    +34°
    Небольшая облачность
    ВремяПогодаТемператураВлажностьДавлениеВетер, м/сВероятность осадков
    02:00Ясно и безоблачно+21°C90 %743 мм2.3 м/с2 %
    05:00Ясно и безоблачно+20°C95 %742 мм2.2 м/с2 %
    08:00Ясно и безоблачно+24°C82 %742 мм2.9 м/с2 %
    11:00Ясно и безоблачно+29°C57 %742 мм2.8 м/с2 %
    14:00Небольшая облачность+32°C47 %742 мм3.5 м/с22 %
    17:00Облачно с прояснениями+28°C52 %741 мм3.4 м/с29 %
    20:00Облачно с прояснениями+28°C63 %742 мм2.5 м/с13 %
    23:00Ясно и безоблачно+24°C82 %742 мм2.4 м/с16 %
  • 17июля
    Среда
    +18°
    +31°
    Практически безоблачно
    ВремяПогодаТемператураВлажностьДавлениеВетер, м/сВероятность осадков
    02:00Практически безоблачно+22°C85 %743 мм2.7 м/с16 %
    05:00Облачно с прояснениями+20°C93 %744 мм2.8 м/с17 %
    08:00Небольшая облачность+22°C78 %746 мм3.8 м/с14 %
    11:00Ясно и безоблачно+26°C50 %746 мм3.8 м/с25 %
    14:00Практически безоблачно+28°C44 %746 мм4.0 м/с27 %
    17:00Практически безоблачно+27°C43 %746 мм3.2 м/с28 %
    20:00Облачно с прояснениями+25°C53 %746 мм2.3 м/с22 %
    23:00Ясно и безоблачно+22°C61 %747 мм2.1 м/с2 %
  • 18июля
    Четверг
    +18°
    +30°
    Облачно с прояснениями
    ВремяПогодаТемператураВлажностьДавлениеВетер, м/сВероятность осадков
    02:00Ясно и безоблачно+19°C72 %747 мм2.3 м/с10 %
    05:00Практически безоблачно+17°C79 %748 мм2.0 м/с9 %
    08:00Практически безоблачно+21°C62 %749 мм2.4 м/с10 %
    11:00Ясно и безоблачно+26°C45 %748 мм2.9 м/с11 %
    14:00Облачно с прояснениями+28°C40 %748 мм3.7 м/с14 %
    17:00Практически безоблачно+27°C42 %747 мм3.9 м/с4 %
    20:00Ясно и безоблачно+25°C49 %747 мм2.6 м/с2 %
    23:00Практически безоблачно+21°C63 %748 мм1.7 м/с2 %
Мы используем cookies
Соглашаюсь